createdAt,value
2019-03-17T00:00:56.729Z,4.30
2019-03-17T00:03:25.397Z,4.83
2019-03-17T00:05:54.598Z,3.63
2019-03-17T00:08:23.530Z,4.90
2019-03-17T00:10:52.849Z,4.93
2019-03-17T00:13:21.863Z,5.13
2019-03-17T00:15:50.821Z,4.30
2019-03-17T00:18:19.578Z,4.67
2019-03-17T00:20:48.225Z,4.37
2019-03-17T00:23:16.834Z,4.47
2019-03-17T00:25:46.052Z,5.07
2019-03-17T00:28:14.902Z,5.07
2019-03-17T00:30:43.914Z,5.47
2019-03-17T00:33:12.567Z,5.03
2019-03-17T00:35:41.487Z,5.00
2019-03-17T00:38:10.282Z,5.47
2019-03-17T00:40:39.451Z,4.80
2019-03-17T00:43:08.124Z,5.20
2019-03-17T00:45:36.975Z,4.83
2019-03-17T00:48:06.082Z,4.50
2019-03-17T00:50:35.167Z,4.60
2019-03-17T00:53:04.199Z,5.03
2019-03-17T00:55:32.889Z,4.13
2019-03-17T00:58:01.715Z,4.10
2019-03-17T01:00:31.142Z,3.73
2019-03-17T01:02:59.970Z,3.50
2019-03-17T01:05:31.152Z,3.07
2019-03-17T01:07:59.569Z,3.77
2019-03-17T01:10:28.590Z,3.60
2019-03-17T01:12:57.239Z,3.07
2019-03-17T01:15:26.259Z,3.80
2019-03-17T01:17:54.922Z,3.60
2019-03-17T01:20:23.741Z,2.37
2019-03-17T01:22:52.371Z,3.13
2019-03-17T01:25:21.221Z,3.67
2019-03-17T01:27:50.224Z,3.30
2019-03-17T01:30:19.446Z,2.47
2019-03-17T01:32:48.483Z,2.30
2019-03-17T01:35:17.702Z,2.40
2019-03-17T01:37:46.738Z,1.87
2019-03-17T01:40:15.766Z,2.47
2019-03-17T01:42:44.418Z,1.90
2019-03-17T01:45:13.059Z,2.07
2019-03-17T01:47:42.070Z,1.90
2019-03-17T01:50:10.731Z,1.73
2019-03-17T01:52:39.395Z,2.20
2019-03-17T01:55:08.079Z,2.00
2019-03-17T01:57:37.113Z,1.83
2019-03-17T02:00:06.461Z,1.90
2019-03-17T02:02:35.482Z,1.80
2019-03-17T02:05:04.170Z,1.93
2019-03-17T02:07:32.977Z,1.97
2019-03-17T02:10:02.172Z,1.87
2019-03-17T02:12:31.382Z,1.87
2019-03-17T02:15:00.101Z,1.93
2019-03-17T02:17:28.870Z,1.83
2019-03-17T02:19:57.519Z,2.00
2019-03-17T02:22:26.147Z,1.90
2019-03-17T02:24:55.060Z,1.53
2019-03-17T02:27:23.819Z,1.80
2019-03-17T02:29:52.827Z,1.70
2019-03-17T02:32:21.753Z,2.00
2019-03-17T02:34:50.531Z,1.93
2019-03-17T02:37:19.439Z,1.70
2019-03-17T02:39:48.211Z,1.87
2019-03-17T02:42:17.633Z,1.80
2019-03-17T02:44:46.617Z,1.90
2019-03-17T02:47:15.255Z,1.53
2019-03-17T02:49:43.933Z,1.50
2019-03-17T02:52:12.753Z,1.90
2019-03-17T02:54:41.609Z,2.00
2019-03-17T02:57:10.615Z,1.60
2019-03-17T02:59:39.809Z,1.97
2019-03-17T03:02:08.790Z,1.73
2019-03-17T03:04:37.882Z,1.90
2019-03-17T03:07:06.568Z,1.50
2019-03-17T03:09:35.355Z,1.33
2019-03-17T03:12:04.060Z,1.90
2019-03-17T03:14:33.198Z,1.87
2019-03-17T03:17:02.137Z,1.90
2019-03-17T03:19:31.479Z,1.60
2019-03-17T03:22:00.345Z,1.77
2019-03-17T03:24:29.510Z,1.70
2019-03-17T03:26:58.176Z,1.73
2019-03-17T03:29:27.486Z,1.40
2019-03-17T03:31:56.249Z,1.53
2019-03-17T03:34:25.295Z,1.83
2019-03-17T03:36:54.371Z,1.80
2019-03-17T03:39:23.126Z,1.80
2019-03-17T03:41:52.340Z,1.90
2019-03-17T03:44:21.683Z,1.60
2019-03-17T03:46:50.686Z,1.47
2019-03-17T03:49:19.923Z,1.70
2019-03-17T03:51:48.705Z,2.03
2019-03-17T03:54:17.876Z,1.80
2019-03-17T03:56:46.810Z,1.70
2019-03-17T03:59:15.549Z,1.67
2019-03-17T04:01:44.582Z,1.77
2019-03-17T04:04:13.310Z,1.60
2019-03-17T04:06:42.063Z,1.77
2019-03-17T04:09:11.063Z,1.53
2019-03-17T04:11:39.724Z,1.70
2019-03-17T04:14:08.631Z,1.20
2019-03-17T04:16:37.383Z,1.70
2019-03-17T04:19:06.399Z,1.87
2019-03-17T04:21:35.616Z,1.50
2019-03-17T04:24:04.655Z,1.70
2019-03-17T04:26:33.680Z,1.70
2019-03-17T04:29:02.351Z,1.90
2019-03-17T04:31:30.987Z,1.50
2019-03-17T04:33:59.784Z,1.80
2019-03-17T04:36:39.406Z,1.50
2019-03-17T04:38:58.851Z,1.40
2019-03-17T04:41:27.528Z,1.57
2019-03-17T04:43:56.307Z,1.73
2019-03-17T04:46:25.327Z,1.80
2019-03-17T04:48:54.031Z,3.37
2019-03-17T04:51:22.826Z,1.57
2019-03-17T04:53:51.450Z,1.83
2019-03-17T04:56:20.122Z,1.77
2019-03-17T04:58:48.933Z,1.97
2019-03-17T05:01:17.934Z,1.73
2019-03-17T05:03:46.599Z,1.50
2019-03-17T05:06:15.233Z,1.60
2019-03-17T05:08:44.241Z,1.90
2019-03-17T05:11:12.920Z,1.67
2019-03-17T05:13:41.767Z,1.77
2019-03-17T05:16:10.583Z,1.60
2019-03-17T05:18:39.369Z,1.90
2019-03-17T05:21:08.063Z,1.93
2019-03-17T05:23:36.855Z,1.90
2019-03-17T05:26:05.875Z,1.77
2019-03-17T05:28:34.531Z,1.90
2019-03-17T05:31:03.173Z,1.87
2019-03-17T05:33:32.366Z,1.23
2019-03-17T05:36:01.411Z,1.53
2019-03-17T05:38:30.057Z,1.93
2019-03-17T05:40:58.707Z,1.40
2019-03-17T05:43:27.708Z,2.10
2019-03-17T05:45:56.363Z,1.83
2019-03-17T05:48:25.038Z,1.80
2019-03-17T05:50:54.015Z,1.67
2019-03-17T05:53:22.679Z,2.20
2019-03-17T05:55:51.518Z,2.00
2019-03-17T05:58:20.367Z,2.50
2019-03-17T06:00:49.727Z,2.33
2019-03-17T06:03:18.482Z,2.20
2019-03-17T06:05:47.231Z,2.17
2019-03-17T06:08:16.087Z,2.10
2019-03-17T06:10:44.880Z,2.27
2019-03-17T06:13:13.898Z,2.10
2019-03-17T06:15:42.926Z,1.90
2019-03-17T06:18:11.591Z,1.83
2019-03-17T06:20:40.428Z,2.30
2019-03-17T06:23:09.046Z,2.40
2019-03-17T06:25:37.686Z,2.07
2019-03-17T06:28:06.330Z,2.63
2019-03-17T06:30:35.527Z,2.20
2019-03-17T06:33:04.658Z,2.03
2019-03-17T06:35:33.716Z,2.37
2019-03-17T06:38:02.434Z,2.17
2019-03-17T06:40:31.655Z,2.50
2019-03-17T06:43:00.366Z,2.13
2019-03-17T06:45:29.207Z,2.30
2019-03-17T06:47:57.982Z,2.43
2019-03-17T06:50:26.997Z,2.67
2019-03-17T06:52:56.015Z,2.77
2019-03-17T06:55:24.673Z,2.27
2019-03-17T06:57:53.308Z,2.80
2019-03-17T07:00:22.156Z,2.40
2019-03-17T07:02:50.968Z,1.67
2019-03-17T07:05:19.602Z,2.17
2019-03-17T07:07:48.459Z,1.90
2019-03-17T07:10:17.298Z,1.97
2019-03-17T07:12:46.123Z,2.10
2019-03-17T07:15:14.917Z,2.70
2019-03-17T07:17:44.003Z,2.13
2019-03-17T07:20:12.951Z,1.90
2019-03-17T07:22:41.293Z,2.20
2019-03-17T07:25:09.845Z,2.13
2019-03-17T07:27:38.891Z,1.73
2019-03-17T07:30:08.413Z,2.30
2019-03-17T07:32:37.178Z,1.83
2019-03-17T07:35:06.116Z,1.53
2019-03-17T07:37:34.549Z,1.80
2019-03-17T07:40:02.863Z,1.77
2019-03-17T07:42:32.607Z,1.70
2019-03-17T07:45:01.344Z,2.07
2019-03-17T07:47:30.166Z,1.80
2019-03-17T07:49:58.976Z,1.67
2019-03-17T07:52:28.006Z,2.10
2019-03-17T07:54:56.902Z,3.73
2019-03-17T07:57:25.710Z,2.57
2019-03-17T07:59:54.079Z,2.80
2019-03-17T08:02:22.511Z,2.00
2019-03-17T08:04:51.693Z,2.33
2019-03-17T08:07:20.444Z,2.50
2019-03-17T08:09:49.271Z,2.00
2019-03-17T08:12:17.728Z,3.00
2019-03-17T08:14:46.720Z,2.17
2019-03-17T08:17:15.567Z,1.93
2019-03-17T08:19:44.282Z,2.00
2019-03-17T08:22:13.028Z,1.90
2019-03-17T08:24:41.698Z,2.37
2019-03-17T08:27:10.543Z,2.27
2019-03-17T08:29:38.916Z,2.20
2019-03-17T08:32:07.606Z,3.73
2019-03-17T08:34:36.407Z,1.97
2019-03-17T08:37:05.084Z,1.73
2019-03-17T08:39:33.907Z,2.00
2019-03-17T08:42:02.740Z,2.23
2019-03-17T08:44:31.093Z,1.80
2019-03-17T08:46:59.395Z,1.93
2019-03-17T08:49:27.791Z,2.30
2019-03-17T08:51:56.171Z,2.07
2019-03-17T08:54:24.529Z,1.87
2019-03-17T08:56:53.184Z,1.90
2019-03-17T08:59:22.025Z,2.10
2019-03-17T09:01:51.203Z,2.07
2019-03-17T09:04:20.379Z,2.20
2019-03-17T09:06:50.063Z,2.43
2019-03-17T09:09:19.006Z,2.17
2019-03-17T09:11:47.770Z,2.30
2019-03-17T09:14:17.338Z,2.60
2019-03-17T09:16:46.271Z,2.27
2019-03-17T09:19:14.664Z,2.30
2019-03-17T09:21:43.440Z,2.23
2019-03-17T09:24:16.987Z,2.30
2019-03-17T09:26:42.726Z,2.00
2019-03-17T09:29:11.603Z,1.73
2019-03-17T09:31:40.491Z,1.57
2019-03-17T09:34:09.206Z,1.90
2019-03-17T09:36:38.229Z,1.83
2019-03-17T09:39:07.827Z,2.13
2019-03-17T09:41:36.872Z,2.23
2019-03-17T09:44:05.592Z,1.90
2019-03-17T09:46:34.397Z,1.93
2019-03-17T09:49:03.581Z,1.60
2019-03-17T09:51:32.795Z,2.37
2019-03-17T09:54:02.007Z,1.80
2019-03-17T09:56:31.045Z,1.57
2019-03-17T09:59:00.086Z,2.53
2019-03-17T10:01:29.070Z,1.77
2019-03-17T10:03:58.445Z,1.80
2019-03-17T10:06:27.573Z,1.50
2019-03-17T10:09:00.206Z,1.50
2019-03-17T10:11:26.195Z,1.50
2019-03-17T10:13:54.835Z,1.53
2019-03-17T10:16:23.487Z,1.53
2019-03-17T10:18:52.503Z,1.50
2019-03-17T10:21:21.169Z,2.07
2019-03-17T10:23:49.615Z,1.60
2019-03-17T10:26:18.032Z,1.40
2019-03-17T10:28:46.375Z,1.50
2019-03-17T10:31:15.096Z,1.20
2019-03-17T10:33:45.724Z,1.50
2019-03-17T10:36:15.127Z,1.57
2019-03-17T10:38:43.530Z,1.30
2019-03-17T10:41:11.866Z,1.67
2019-03-17T10:43:40.557Z,1.70
2019-03-17T10:46:09.959Z,1.50
2019-03-17T10:48:38.630Z,1.80
2019-03-17T10:51:06.990Z,2.03
2019-03-17T10:53:35.341Z,1.43
2019-03-17T10:56:04.023Z,1.53
2019-03-17T10:58:32.794Z,1.80
2019-03-17T11:01:01.604Z,1.80
2019-03-17T11:03:30.445Z,2.10
2019-03-17T11:05:58.888Z,1.73
2019-03-17T11:08:27.234Z,1.40
2019-03-17T11:10:56.385Z,1.80
2019-03-17T11:13:24.762Z,1.70
2019-03-17T11:15:53.136Z,1.90
2019-03-17T11:18:21.884Z,1.93
2019-03-17T11:20:50.878Z,1.70
2019-03-17T11:23:20.093Z,2.10
2019-03-17T11:25:50.802Z,2.00
2019-03-17T11:28:20.146Z,1.90
2019-03-17T11:30:56.149Z,2.20
2019-03-17T11:33:24.454Z,1.80
2019-03-17T11:35:52.828Z,1.80
2019-03-17T11:38:21.548Z,2.23
2019-03-17T11:40:50.553Z,1.57
2019-03-17T11:43:19.022Z,1.80
2019-03-17T11:45:49.941Z,1.83
2019-03-17T11:48:18.402Z,1.73
2019-03-17T11:50:46.825Z,1.67
2019-03-17T11:53:15.286Z,1.70
2019-03-17T11:55:43.623Z,1.77
2019-03-17T11:58:11.970Z,1.40
2019-03-17T12:00:40.369Z,2.27
2019-03-17T12:03:08.867Z,1.63
2019-03-17T12:05:37.198Z,1.27
2019-03-17T12:08:05.779Z,1.20
2019-03-17T12:10:34.086Z,1.30
2019-03-17T12:13:02.544Z,1.40
2019-03-17T12:15:31.049Z,1.50
2019-03-17T12:17:59.469Z,1.60
2019-03-17T12:20:27.915Z,1.40
2019-03-17T12:22:56.250Z,1.40
2019-03-17T12:25:24.707Z,1.20
2019-03-17T12:27:53.171Z,1.00
2019-03-17T12:30:22.444Z,1.07
2019-03-17T12:32:50.983Z,1.20
2019-03-17T12:35:19.491Z,0.90
2019-03-17T12:37:47.866Z,1.30
2019-03-17T12:40:16.234Z,1.57
2019-03-17T12:42:44.764Z,1.00
2019-03-17T12:45:13.302Z,1.07
2019-03-17T12:47:41.663Z,1.13
2019-03-17T12:50:10.733Z,2.23
2019-03-17T12:52:39.115Z,1.40
2019-03-17T12:55:07.463Z,1.30
2019-03-17T12:57:35.836Z,1.23
2019-03-17T13:00:04.391Z,1.37
2019-03-17T13:02:32.754Z,1.40
2019-03-17T13:05:01.163Z,1.83
2019-03-17T13:07:29.531Z,1.20
2019-03-17T13:09:57.875Z,1.00
2019-03-17T13:12:26.201Z,0.90
2019-03-17T13:14:54.623Z,0.90
2019-03-17T13:17:22.951Z,1.20
2019-03-17T13:19:51.777Z,0.50
2019-03-17T13:22:21.000Z,0.67
2019-03-17T13:24:50.361Z,0.50
2019-03-17T13:27:20.993Z,0.70
2019-03-17T13:29:49.905Z,0.70
2019-03-17T13:32:18.672Z,0.50
2019-03-17T13:34:47.567Z,0.53
2019-03-17T13:37:16.355Z,0.50
2019-03-17T13:39:44.846Z,0.60
2019-03-17T13:42:13.631Z,0.40
2019-03-17T13:44:42.469Z,0.57
2019-03-17T13:47:11.243Z,0.73
2019-03-17T13:49:39.881Z,0.40
2019-03-17T13:52:08.570Z,0.87
2019-03-17T13:54:37.363Z,0.77
2019-03-17T13:57:06.476Z,0.53
2019-03-17T13:59:35.239Z,0.70
2019-03-17T14:02:03.897Z,0.60
2019-03-17T14:04:32.268Z,0.90
2019-03-17T14:07:00.627Z,0.60
2019-03-17T14:09:29.191Z,0.77
2019-03-17T14:11:57.514Z,0.50
2019-03-17T14:14:25.851Z,0.80
2019-03-17T14:16:54.391Z,0.80
2019-03-17T14:19:23.173Z,0.70
2019-03-17T14:21:51.979Z,0.87
2019-03-17T14:24:21.181Z,0.70
2019-03-17T14:26:49.879Z,0.70
2019-03-17T14:29:18.770Z,0.60
2019-03-17T14:31:47.643Z,0.80
2019-03-17T14:34:16.351Z,0.80
2019-03-17T14:36:45.536Z,0.77
2019-03-17T14:39:14.240Z,0.90
2019-03-17T14:41:43.042Z,0.93
2019-03-17T14:44:11.915Z,0.80
2019-03-17T14:46:41.067Z,0.83
2019-03-17T14:49:09.821Z,0.60
2019-03-17T14:51:38.555Z,0.67
2019-03-17T14:54:07.232Z,0.43
2019-03-17T14:56:36.407Z,1.03
2019-03-17T14:59:05.360Z,0.70
2019-03-17T15:01:34.462Z,0.67
2019-03-17T15:04:03.684Z,0.70
2019-03-17T15:06:32.559Z,0.63
2019-03-17T15:09:01.411Z,0.80
2019-03-17T15:11:30.583Z,0.60
2019-03-17T15:13:59.247Z,0.70
2019-03-17T15:16:28.246Z,0.60
2019-03-17T15:18:56.899Z,0.77
2019-03-17T15:21:25.547Z,0.70
2019-03-17T15:23:54.418Z,0.73
2019-03-17T15:26:23.772Z,0.70
2019-03-17T15:28:53.009Z,0.73
2019-03-17T15:31:21.676Z,0.70
2019-03-17T15:33:50.513Z,0.80
2019-03-17T15:36:19.355Z,0.73
2019-03-17T15:38:48.262Z,0.60
2019-03-17T15:41:18.821Z,0.90
2019-03-17T15:43:47.438Z,0.70
2019-03-17T15:46:16.250Z,0.67
2019-03-17T15:48:45.068Z,0.70
2019-03-17T15:51:20.344Z,0.60
2019-03-17T15:53:44.065Z,1.00
2019-03-17T15:56:12.933Z,0.70
2019-03-17T15:58:41.623Z,0.70
2019-03-17T16:01:10.977Z,0.80
2019-03-17T16:03:40.012Z,0.80
2019-03-17T16:06:08.660Z,0.77
2019-03-17T16:08:37.674Z,1.23
2019-03-17T16:11:07.093Z,1.17
2019-03-17T16:13:36.320Z,0.87
2019-03-17T16:16:05.568Z,0.80
2019-03-17T16:18:34.194Z,0.80
2019-03-17T16:21:02.943Z,0.93
2019-03-17T16:23:32.058Z,0.90
2019-03-17T16:26:01.108Z,1.00
2019-03-17T16:28:30.119Z,1.17
2019-03-17T16:30:58.797Z,1.17
2019-03-17T16:33:27.644Z,0.90
2019-03-17T16:35:56.451Z,0.63
2019-03-17T16:38:35.278Z,1.20
2019-03-17T16:41:03.994Z,0.97
2019-03-17T16:43:32.790Z,0.90
2019-03-17T16:46:01.970Z,0.73
2019-03-17T16:48:30.659Z,0.90
2019-03-17T16:50:59.505Z,0.77
2019-03-17T16:53:28.320Z,0.90
2019-03-17T16:55:57.402Z,1.13
2019-03-17T16:58:26.206Z,1.40
2019-03-17T17:00:55.551Z,0.90
2019-03-17T17:03:24.454Z,0.93
2019-03-17T17:05:53.808Z,0.57
2019-03-17T17:08:22.675Z,0.90
2019-03-17T17:10:51.539Z,1.10
2019-03-17T17:13:20.366Z,1.10
2019-03-17T17:15:51.994Z,1.10
2019-03-17T17:18:20.771Z,1.20
2019-03-17T17:20:50.149Z,0.90
2019-03-17T17:23:18.863Z,1.97
2019-03-17T17:25:47.687Z,1.00
2019-03-17T17:28:16.855Z,1.00
2019-03-17T17:30:45.572Z,0.90
2019-03-17T17:33:14.728Z,1.10
2019-03-17T17:35:43.567Z,1.20
2019-03-17T17:38:12.410Z,1.50
2019-03-17T17:40:41.227Z,1.70
2019-03-17T17:43:10.262Z,1.27
2019-03-17T17:45:39.271Z,1.70
2019-03-17T17:48:08.299Z,1.80
2019-03-17T17:50:37.339Z,1.20
2019-03-17T17:53:06.259Z,1.50
2019-03-17T17:55:35.584Z,1.83
2019-03-17T17:58:04.550Z,1.90
2019-03-17T18:00:37.126Z,1.90
2019-03-17T18:03:06.405Z,1.70
2019-03-17T18:05:35.127Z,4.00
2019-03-17T18:08:04.211Z,4.10
2019-03-17T18:10:34.199Z,3.10
2019-03-17T18:13:03.332Z,3.10
2019-03-17T18:15:33.212Z,11.07
2019-03-17T18:18:03.878Z,8.83
2019-03-17T18:20:36.375Z,5.43
2019-03-17T18:23:16.831Z,3.10
2019-03-17T18:25:36.241Z,2.87
2019-03-17T18:28:05.547Z,1.60
2019-03-17T18:30:34.491Z,1.57
2019-03-17T18:33:03.335Z,1.50
2019-03-17T18:35:32.480Z,1.50
2019-03-17T18:38:01.577Z,1.67
2019-03-17T18:40:30.491Z,1.80
2019-03-17T18:43:00.117Z,1.23
2019-03-17T18:45:29.162Z,1.63
2019-03-17T18:47:58.491Z,1.93
2019-03-17T18:50:27.814Z,1.60
2019-03-17T18:52:56.774Z,1.73
2019-03-17T18:55:25.885Z,1.60
2019-03-17T18:57:54.759Z,1.50
2019-03-17T19:00:23.940Z,1.50
2019-03-17T19:02:53.150Z,1.93
2019-03-17T19:05:22.340Z,1.80
2019-03-17T19:07:51.340Z,1.77
2019-03-17T19:10:21.051Z,1.63
2019-03-17T19:12:50.878Z,1.90
2019-03-17T19:15:20.176Z,2.00
2019-03-17T19:17:50.451Z,1.97
2019-03-17T19:20:19.780Z,1.83
2019-03-17T19:22:49.340Z,2.30
2019-03-17T19:25:19.042Z,2.47
2019-03-17T19:27:48.306Z,2.30
2019-03-17T19:30:17.672Z,3.63
2019-03-17T19:32:46.897Z,2.50
2019-03-17T19:35:16.351Z,2.57
2019-03-17T19:37:45.698Z,2.60
2019-03-17T19:40:15.063Z,2.07
2019-03-17T19:42:44.500Z,2.57
2019-03-17T19:45:13.393Z,2.57
2019-03-17T19:47:42.609Z,3.10
2019-03-17T19:50:12.150Z,3.07
2019-03-17T19:52:41.123Z,3.87
2019-03-17T19:55:10.886Z,3.00
2019-03-17T19:57:39.898Z,2.67
2019-03-17T20:00:09.482Z,3.77
2019-03-17T20:02:38.517Z,5.00
2019-03-17T20:05:08.022Z,4.73
2019-03-17T20:07:37.000Z,5.33
2019-03-17T20:10:06.405Z,4.87
2019-03-17T20:12:35.913Z,4.30
2019-03-17T20:15:05.447Z,4.27
2019-03-17T20:17:35.294Z,5.77
2019-03-17T20:20:04.701Z,6.03
2019-03-17T20:22:33.997Z,4.97
2019-03-17T20:25:03.322Z,4.87
2019-03-17T20:27:32.340Z,4.77
2019-03-17T20:30:01.336Z,4.30
2019-03-17T20:32:30.796Z,3.43
2019-03-17T20:35:00.277Z,3.20
2019-03-17T20:37:29.288Z,3.53
2019-03-17T20:39:58.512Z,3.60
2019-03-17T20:42:27.706Z,4.57
2019-03-17T20:44:56.547Z,4.57
2019-03-17T20:47:25.631Z,4.23
2019-03-17T20:49:54.908Z,4.07
2019-03-17T20:52:24.247Z,3.77
2019-03-17T20:54:53.650Z,3.17
2019-03-17T20:57:23.062Z,3.37
2019-03-17T20:59:52.238Z,3.33
2019-03-17T21:02:21.335Z,3.30
2019-03-17T21:04:50.552Z,3.37
2019-03-17T21:07:20.303Z,3.67
2019-03-17T21:09:49.714Z,3.93
2019-03-17T21:12:18.786Z,5.37
2019-03-17T21:14:47.494Z,4.00
2019-03-17T21:17:16.719Z,3.83
2019-03-17T21:19:45.744Z,3.83
2019-03-17T21:22:14.945Z,3.63
2019-03-17T21:24:43.830Z,3.90
2019-03-17T21:27:12.874Z,3.70
2019-03-17T21:29:41.815Z,3.80
2019-03-17T21:32:11.544Z,3.63
2019-03-17T21:34:41.090Z,3.37
2019-03-17T21:37:10.302Z,3.80
2019-03-17T21:39:39.327Z,3.50
2019-03-17T21:42:08.230Z,3.90
2019-03-17T21:44:37.499Z,3.80
2019-03-17T21:47:06.414Z,2.93
2019-03-17T21:49:34.870Z,3.77
2019-03-17T21:52:03.881Z,3.53
2019-03-17T21:54:33.236Z,2.87
2019-03-17T21:57:02.338Z,3.07
2019-03-17T21:59:31.168Z,3.30
2019-03-17T22:02:12.049Z,3.43
2019-03-17T22:04:30.453Z,2.87
2019-03-17T22:06:59.535Z,3.10
2019-03-17T22:09:28.668Z,3.23
2019-03-17T22:11:58.118Z,3.40
2019-03-17T22:14:26.904Z,3.87
2019-03-17T22:16:56.444Z,3.53
2019-03-17T22:19:25.762Z,3.43
2019-03-17T22:21:54.499Z,3.60
2019-03-17T22:24:23.274Z,2.37
2019-03-17T22:26:52.153Z,1.57
2019-03-17T22:29:20.983Z,1.50
2019-03-17T22:31:49.899Z,1.40
2019-03-17T22:34:19.349Z,1.30
2019-03-17T22:36:48.491Z,1.20
2019-03-17T22:39:17.901Z,1.67
2019-03-17T22:41:47.035Z,0.90
2019-03-17T22:44:24.384Z,1.07
2019-03-17T22:46:46.479Z,1.00
2019-03-17T22:49:15.182Z,1.00
2019-03-17T22:51:44.024Z,1.00
2019-03-17T22:54:12.827Z,1.00
2019-03-17T22:56:41.705Z,1.17
2019-03-17T22:59:10.548Z,1.00
2019-03-17T23:01:39.968Z,1.00
2019-03-17T23:04:08.791Z,1.03
2019-03-17T23:06:37.267Z,1.03
2019-03-17T23:09:07.450Z,1.20
2019-03-17T23:11:36.527Z,1.27
2019-03-17T23:14:05.404Z,0.67
2019-03-17T23:16:34.575Z,1.10
2019-03-17T23:19:03.541Z,0.80
2019-03-17T23:21:32.382Z,0.80
2019-03-17T23:24:01.210Z,1.13
2019-03-17T23:26:30.118Z,1.17
2019-03-17T23:28:59.153Z,1.10
2019-03-17T23:31:28.014Z,1.00
2019-03-17T23:33:57.162Z,0.90
2019-03-17T23:36:26.092Z,1.03
2019-03-17T23:38:54.814Z,1.70
2019-03-17T23:41:23.761Z,1.03
2019-03-17T23:43:52.752Z,1.27
2019-03-17T23:46:22.187Z,1.00
2019-03-17T23:48:53.437Z,1.10
2019-03-17T23:51:22.237Z,0.97
2019-03-17T23:53:51.358Z,0.90
2019-03-17T23:56:20.584Z,0.97
2019-03-17T23:58:49.587Z,1.53
